Time;durP1;ratioP1;P1;durP2;ratioP2;P2;SDS_P1;SDS_P2;PMS_P1;PMS_P2;Temp;Humidity;BMP_temperature;BMP_pressure;BME280_temperature;BME280_humidity;BME280_pressure;Samples;Min_cycle;Max_cycle;Signal;HPM_P1;HPM_P2
2023/06/05 00:01:43;;;;;;;1.08;0.82;;;24.20;37.60;;;;;;5039552;28;20088;-61
2023/06/05 00:04:09;;;;;;;1.40;0.95;;;24.20;37.60;;;;;;5032770;28;20361;-59
2023/06/05 00:06:37;;;;;;;0.95;0.65;;;24.20;37.70;;;;;;5038166;28;20036;-60
2023/06/05 00:09:04;;;;;;;1.35;0.90;;;24.20;37.70;;;;;;5038309;28;20037;-63
2023/06/05 00:11:30;;;;;;;1.27;0.70;;;24.20;37.70;;;;;;5039673;28;20037;-61
2023/06/05 00:13:56;;;;;;;1.00;0.80;;;24.20;37.70;;;;;;5044670;28;20432;-60
2023/06/05 00:16:22;;;;;;;1.25;0.85;;;24.10;37.60;;;;;;5034757;28;20021;-63
2023/06/05 00:18:48;;;;;;;1.55;0.70;;;24.10;37.70;;;;;;5034933;28;20049;-61
2023/06/05 00:21:19;;;;;;;1.17;0.70;;;24.10;37.70;;;;;;5035834;28;20089;-60
2023/06/05 00:23:45;;;;;;;2.10;0.90;;;24.10;37.70;;;;;;5043284;28;20395;-62
2023/06/05 00:26:11;;;;;;;1.20;0.80;;;24.10;37.70;;;;;;5036410;28;20021;-61
2023/06/05 00:28:38;;;;;;;1.13;0.80;;;24.10;37.70;;;;;;5039511;28;20328;-61
2023/06/05 00:31:07;;;;;;;1.30;0.70;;;24.10;37.70;;;;;;5036659;28;20017;-59
2023/06/05 00:33:33;;;;;;;1.48;0.70;;;24.10;37.70;;;;;;5041842;28;20044;-60
2023/06/05 00:35:58;;;;;;;1.10;0.70;;;24.10;37.70;;;;;;5043223;28;20131;-61
2023/06/05 00:38:25;;;;;;;2.38;0.93;;;24.10;37.80;;;;;;5033157;28;20025;-59
2023/06/05 00:40:50;;;;;;;0.90;0.70;;;24.10;37.80;;;;;;5034805;28;20112;-60
2023/06/05 00:43:18;;;;;;;1.35;0.73;;;24.10;37.80;;;;;;5038056;28;20087;-61
2023/06/05 00:45:43;;;;;;;1.25;0.93;;;24.00;37.70;;;;;;5026704;28;20041;-63
2023/06/05 00:48:10;;;;;;;1.75;0.80;;;24.00;37.80;;;;;;5043254;28;20032;-64
2023/06/05 00:50:37;;;;;;;1.88;0.70;;;24.00;37.80;;;;;;5040513;28;20073;-60
2023/06/05 00:53:06;;;;;;;1.13;0.75;;;24.00;37.80;;;;;;5035050;28;20029;-60
2023/06/05 00:55:32;;;;;;;1.15;0.70;;;24.00;37.80;;;;;;5037221;28;20490;-60
2023/06/05 00:58:00;;;;;;;0.93;0.70;;;24.00;37.80;;;;;;5033554;28;20430;-61
2023/06/05 01:00:27;;;;;;;0.95;0.70;;;24.00;37.90;;;;;;5036781;28;20037;-62
2023/06/05 01:02:58;;;;;;;1.10;0.82;;;24.00;37.90;;;;;;5034350;28;20058;-64
2023/06/05 01:05:24;;;;;;;0.95;0.70;;;24.00;37.90;;;;;;5037758;28;20027;-64
2023/06/05 01:07:50;;;;;;;1.05;0.80;;;24.00;38.00;;;;;;5034067;28;20045;-61
2023/06/05 01:10:17;;;;;;;1.52;0.80;;;24.00;38.00;;;;;;5038637;28;20412;-61
2023/06/05 01:13:04;;;;;;;1.08;0.95;;;23.90;38.00;;;;;;5032273;28;20029;-62
2023/06/05 01:15:31;;;;;;;1.20;0.90;;;23.90;38.00;;;;;;5036374;28;20045;-61
2023/06/05 01:18:00;;;;;;;1.52;0.90;;;23.90;38.00;;;;;;5032338;28;20145;-64
2023/06/05 01:20:38;;;;;;;1.17;0.80;;;23.90;38.00;;;;;;5039167;28;20054;-64
2023/06/05 01:23:06;;;;;;;1.35;0.68;;;23.90;38.00;;;;;;5038526;28;20028;-62
2023/06/05 01:25:32;;;;;;;1.30;0.90;;;23.90;38.10;;;;;;5044272;28;20041;-61
2023/06/05 01:28:10;;;;;;;0.82;0.55;;;23.90;38.10;;;;;;5030283;28;20033;-61
2023/06/05 01:31:03;;;;;;;1.35;0.98;;;23.90;38.10;;;;;;5035259;28;20345;-61
2023/06/05 01:33:41;;;;;;;1.67;0.82;;;23.90;38.10;;;;;;5031409;28;20445;-60
2023/06/05 01:36:11;;;;;;;3.70;1.02;;;23.80;38.10;;;;;;5046644;28;20067;-61
2023/06/05 01:38:40;;;;;;;1.05;0.80;;;23.80;38.10;;;;;;5042564;28;20334;-61
2023/06/05 01:41:10;;;;;;;1.67;1.00;;;23.80;38.10;;;;;;5035792;28;20044;-60
2023/06/05 01:43:37;;;;;;;1.15;0.85;;;23.80;38.20;;;;;;5049013;28;20021;-63
2023/06/05 01:46:07;;;;;;;4.97;0.98;;;23.80;38.20;;;;;;5034090;28;20374;-62
2023/06/05 01:48:33;;;;;;;1.60;0.90;;;23.80;38.20;;;;;;5045614;28;20200;-61
2023/06/05 01:51:02;;;;;;;1.00;0.90;;;23.80;38.20;;;;;;5043017;28;20722;-63
2023/06/05 01:53:29;;;;;;;0.88;0.77;;;23.80;38.20;;;;;;5040498;28;20041;-63
2023/06/05 01:55:57;;;;;;;1.02;0.68;;;23.80;38.20;;;;;;5040905;28;20108;-61
2023/06/05 01:58:25;;;;;;;1.48;0.82;;;23.70;38.20;;;;;;5036220;28;20048;-62
2023/06/05 02:00:52;;;;;;;0.98;0.73;;;23.80;38.20;;;;;;5039177;28;20059;-62
2023/06/05 02:03:19;;;;;;;1.73;0.88;;;23.70;38.20;;;;;;5043199;28;20030;-62
2023/06/05 02:05:46;;;;;;;1.33;1.10;;;23.70;38.80;;;;;;5037212;28;20045;-61
2023/06/05 02:08:13;;;;;;;2.67;1.00;;;23.70;38.20;;;;;;5039776;28;20029;-61
2023/06/05 02:10:42;;;;;;;2.28;1.10;;;23.70;38.20;;;;;;5039568;28;20345;-61
2023/06/05 02:13:09;;;;;;;1.63;0.90;;;23.70;38.20;;;;;;5038771;28;20044;-61
2023/06/05 02:15:35;;;;;;;1.42;0.95;;;23.70;38.20;;;;;;5044123;28;20067;-64
2023/06/05 02:18:04;;;;;;;2.25;0.98;;;23.70;38.30;;;;;;5039129;28;20052;-61
2023/06/05 02:20:32;;;;;;;2.30;1.10;;;23.70;38.30;;;;;;5032431;28;20113;-60
2023/06/05 02:22:58;;;;;;;1.63;1.00;;;23.70;38.30;;;;;;5044507;28;20021;-63
2023/06/05 02:25:28;;;;;;;1.50;0.98;;;23.70;38.30;;;;;;5045488;28;20033;-60
2023/06/05 02:27:55;;;;;;;1.38;0.80;;;23.70;38.30;;;;;;5044881;28;20345;-62
2023/06/05 02:30:21;;;;;;;1.52;1.00;;;23.60;38.30;;;;;;5040457;28;20074;-63
2023/06/05 02:32:48;;;;;;;1.30;1.00;;;23.60;38.30;;;;;;5045325;28;20031;-60
2023/06/05 02:35:15;;;;;;;1.40;1.10;;;23.60;38.30;;;;;;5036752;28;20063;-58
2023/06/05 02:37:43;;;;;;;0.95;0.85;;;23.60;38.30;;;;;;5045148;28;20048;-61
2023/06/05 02:40:14;;;;;;;1.00;0.90;;;23.60;38.30;;;;;;5039842;28;20148;-62
2023/06/05 02:42:40;;;;;;;1.58;1.15;;;23.60;38.30;;;;;;5043675;28;20906;-63
2023/06/05 02:45:07;;;;;;;1.77;0.93;;;23.60;38.40;;;;;;5047822;28;20045;-61
2023/06/05 02:47:33;;;;;;;0.80;0.80;;;23.60;38.40;;;;;;5036044;28;20032;-60
2023/06/05 02:50:02;;;;;;;1.30;1.00;;;23.60;38.40;;;;;;5041662;28;20119;-62
2023/06/05 02:52:34;;;;;;;1.13;0.82;;;23.60;38.40;;;;;;5035147;28;20102;-61
2023/06/05 02:55:05;;;;;;;3.03;1.15;;;23.60;38.40;;;;;;5041385;28;20025;-64
2023/06/05 02:57:35;;;;;;;1.70;0.93;;;23.60;38.40;;;;;;5038691;28;20047;-61
2023/06/05 03:00:07;;;;;;;1.63;1.20;;;23.50;38.40;;;;;;5041278;28;20109;-62
2023/06/05 03:02:37;;;;;;;1.35;0.90;;;23.50;38.40;;;;;;5041996;28;20028;-61
2023/06/05 03:05:04;;;;;;;2.17;0.93;;;23.50;38.40;;;;;;5039753;28;20089;-61
2023/06/05 03:07:33;;;;;;;1.90;1.08;;;23.50;38.40;;;;;;5037073;28;20056;-62
2023/06/05 03:10:01;;;;;;;1.83;1.00;;;23.50;38.40;;;;;;5028211;28;20029;-60
2023/06/05 03:12:28;;;;;;;1.40;1.08;;;23.50;38.40;;;;;;5024812;28;20115;-61
2023/06/05 03:14:54;;;;;;;0.93;0.85;;;23.50;38.50;;;;;;5045577;28;20174;-61
2023/06/05 03:17:20;;;;;;;1.40;0.88;;;23.50;38.50;;;;;;5058307;28;20112;-63
2023/06/05 03:19:46;;;;;;;1.10;0.90;;;23.50;38.50;;;;;;5045159;28;20085;-59
2023/06/05 03:22:12;;;;;;;1.00;0.90;;;23.50;38.50;;;;;;5042392;28;20161;-62
2023/06/05 03:24:40;;;;;;;0.70;0.70;;;23.50;38.60;;;;;;5046083;28;20115;-64
2023/06/05 03:27:08;;;;;;;3.10;1.00;;;23.50;38.70;;;;;;5036027;28;20028;-66
2023/06/05 03:29:34;;;;;;;1.48;1.02;;;23.40;38.60;;;;;;5040321;28;20028;-64
2023/06/05 03:32:00;;;;;;;1.33;0.95;;;23.40;38.60;;;;;;5036448;28;20037;-62
2023/06/05 03:34:29;;;;;;;2.13;0.93;;;23.40;38.60;;;;;;5039591;28;20035;-62
2023/06/05 03:36:58;;;;;;;1.50;0.93;;;23.40;38.70;;;;;;5061766;28;20043;-63
2023/06/05 03:39:26;;;;;;;1.80;1.02;;;23.40;38.60;;;;;;5036391;28;20025;-62
2023/06/05 03:41:52;;;;;;;2.53;0.90;;;23.50;38.70;;;;;;5047604;28;20320;-60
2023/06/05 03:44:20;;;;;;;1.30;1.00;;;23.40;38.70;;;;;;5043367;28;20039;-61
2023/06/05 03:46:46;;;;;;;1.63;1.08;;;23.40;38.70;;;;;;5036524;28;20041;-61
2023/06/05 03:49:13;;;;;;;2.13;1.10;;;23.40;38.70;;;;;;5038336;28;20427;-60
2023/06/05 03:51:44;;;;;;;1.17;0.95;;;23.40;38.70;;;;;;5026084;28;20036;-62
2023/06/05 03:54:12;;;;;;;1.10;0.90;;;23.40;38.60;;;;;;5036319;28;20066;-63
2023/06/05 03:56:42;;;;;;;1.25;0.88;;;23.40;38.70;;;;;;5035190;28;20041;-61
2023/06/05 03:59:11;;;;;;;1.85;1.20;;;23.40;39.30;;;;;;5036583;28;20033;-62
2023/06/05 04:01:39;;;;;;;1.27;0.85;;;23.40;38.70;;;;;;5041692;28;20052;-59
2023/06/05 04:04:05;;;;;;;0.90;0.80;;;23.40;38.70;;;;;;5038745;28;20037;-60
2023/06/05 04:06:36;;;;;;;1.05;0.90;;;23.40;38.70;;;;;;5035560;28;20124;-62
2023/06/05 04:09:10;;;;;;;1.90;1.27;;;23.40;38.70;;;;;;5020191;28;20130;-60
2023/06/05 04:11:41;;;;;;;1.60;1.13;;;23.40;38.70;;;;;;5039697;28;20096;-62
2023/06/05 04:14:10;;;;;;;1.35;0.98;;;23.40;38.70;;;;;;5036219;28;20017;-60
2023/06/05 04:16:40;;;;;;;1.73;1.00;;;23.40;38.70;;;;;;5033984;28;20491;-63
2023/06/05 04:19:09;;;;;;;1.67;0.85;;;23.40;38.70;;;;;;5033695;28;20444;-59
2023/06/05 04:21:37;;;;;;;1.02;0.70;;;23.40;38.70;;;;;;5039958;28;20045;-61
2023/06/05 04:24:09;;;;;;;1.20;0.82;;;23.40;38.70;;;;;;5032957;28;20066;-63
2023/06/05 04:26:36;;;;;;;1.50;1.00;;;23.40;38.70;;;;;;5041218;28;20025;-61
2023/06/05 04:29:03;;;;;;;1.50;0.88;;;23.40;38.70;;;;;;5037131;28;20040;-64
2023/06/05 04:31:32;;;;;;;1.17;1.05;;;23.40;38.70;;;;;;5027467;28;20017;-62
2023/06/05 04:33:59;;;;;;;1.27;1.10;;;23.40;38.70;;;;;;5035378;28;20324;-63
2023/06/05 04:36:28;;;;;;;1.65;1.10;;;23.40;38.60;;;;;;5029715;28;20421;-61
2023/06/05 04:38:54;;;;;;;1.98;1.08;;;23.40;38.60;;;;;;5037520;28;20429;-62
2023/06/05 04:41:21;;;;;;;1.33;1.10;;;23.40;38.60;;;;;;5033266;28;20032;-61
2023/06/05 04:43:48;;;;;;;1.55;0.90;;;23.40;38.60;;;;;;5035442;28;20435;-60
2023/06/05 04:46:16;;;;;;;1.17;0.75;;;23.40;38.60;;;;;;5019517;28;20098;-62
2023/06/05 04:48:42;;;;;;;1.42;0.90;;;23.40;38.60;;;;;;5014907;28;20034;-61
2023/06/05 04:51:11;;;;;;;1.55;1.05;;;23.40;38.60;;;;;;5013425;28;20049;-60
2023/06/05 04:53:37;;;;;;;1.20;1.08;;;23.40;38.60;;;;;;5018735;28;20099;-60
2023/06/05 04:56:04;;;;;;;1.30;1.00;;;23.40;38.60;;;;;;5015941;28;20037;-60
2023/06/05 04:58:33;;;;;;;0.90;0.80;;;23.40;38.60;;;;;;5019001;28;20041;-62
2023/06/05 05:01:04;;;;;;;1.40;0.90;;;23.40;38.60;;;;;;5013235;28;20029;-65
2023/06/05 05:03:33;;;;;;;1.10;0.80;;;23.40;38.50;;;;;;5021024;28;20018;-61
2023/06/05 05:05:59;;;;;;;1.52;1.05;;;23.40;38.50;;;;;;5015972;28;20094;-62
2023/06/05 05:08:27;;;;;;;1.45;0.90;;;23.40;38.50;;;;;;5010370;28;20073;-60
2023/06/05 05:10:53;;;;;;;2.15;1.15;;;23.50;38.60;;;;;;5017677;28;20030;-59
2023/06/05 05:13:19;;;;;;;1.33;1.00;;;23.40;38.50;;;;;;5014201;28;20160;-59
2023/06/05 05:15:46;;;;;;;1.13;0.80;;;23.40;38.50;;;;;;5017907;28;20034;-59
2023/06/05 05:18:12;;;;;;;1.98;1.02;;;23.40;38.50;;;;;;5010540;28;20030;-58
2023/06/05 05:20:39;;;;;;;1.40;1.00;;;23.40;38.50;;;;;;5019535;28;20033;-58
2023/06/05 05:23:07;;;;;;;1.73;1.02;;;23.50;38.50;;;;;;5017902;28;20022;-63
2023/06/05 05:25:33;;;;;;;1.27;0.88;;;23.40;38.40;;;;;;5015921;28;20032;-62
2023/06/05 05:28:00;;;;;;;1.48;0.90;;;23.50;38.50;;;;;;5020715;28;20021;-61
2023/06/05 05:30:26;;;;;;;1.10;0.80;;;23.50;38.50;;;;;;5018923;28;20069;-59
2023/06/05 05:32:52;;;;;;;0.70;0.70;;;23.50;38.50;;;;;;5013035;28;20037;-58
2023/06/05 05:35:18;;;;;;;1.30;1.00;;;23.50;38.50;;;;;;5019968;28;20041;-61
2023/06/05 05:37:46;;;;;;;2.05;1.25;;;23.50;38.50;;;;;;5015735;28;20414;-62
2023/06/05 05:40:12;;;;;;;1.50;1.08;;;23.50;38.50;;;;;;5022679;28;20052;-60
2023/06/05 05:42:38;;;;;;;2.75;1.40;;;23.50;38.50;;;;;;5010265;28;20033;-61
2023/06/05 05:45:04;;;;;;;1.50;0.80;;;23.50;38.50;;;;;;5021616;28;20413;-59
2023/06/05 05:47:30;;;;;;;1.73;1.17;;;23.50;39.10;;;;;;5056000;28;20032;-65
2023/06/05 05:49:56;;;;;;;1.30;1.20;;;23.50;38.40;;;;;;5058231;28;20029;-60
2023/06/05 05:52:22;;;;;;;1.80;1.02;;;23.50;38.50;;;;;;5057972;28;20044;-61
2023/06/05 05:54:48;;;;;;;1.95;0.95;;;23.50;38.40;;;;;;5054546;28;20170;-62
2023/06/05 05:57:14;;;;;;;2.08;1.00;;;23.50;38.50;;;;;;5053169;28;20513;-61
2023/06/05 05:59:44;;;;;;;1.30;0.88;;;23.50;38.40;;;;;;5057330;28;20120;-60
2023/06/05 06:02:13;;;;;;;3.85;1.30;;;23.50;38.40;;;;;;5056474;28;20078;-63
2023/06/05 06:04:40;;;;;;;1.52;1.00;;;23.50;38.40;;;;;;5059704;28;20040;-61
2023/06/05 06:07:06;;;;;;;1.00;0.93;;;23.50;38.50;;;;;;5057917;28;20029;-62
2023/06/05 06:09:32;;;;;;;1.65;0.95;;;23.50;38.40;;;;;;5055173;28;20102;-61
2023/06/05 06:12:02;;;;;;;1.73;0.98;;;23.50;38.40;;;;;;5031113;28;20033;-62
2023/06/05 06:14:28;;;;;;;1.63;1.00;;;23.50;38.40;;;;;;5058370;28;20036;-61
2023/06/05 06:16:55;;;;;;;1.50;1.23;;;23.50;38.40;;;;;;5049201;28;20041;-59
2023/06/05 06:19:23;;;;;;;1.13;0.80;;;23.50;38.40;;;;;;5052832;28;20123;-63
2023/06/05 06:21:52;;;;;;;1.13;0.85;;;23.50;38.40;;;;;;5058041;28;20065;-62
2023/06/05 06:24:20;;;;;;;1.08;0.98;;;23.60;38.50;;;;;;5055485;28;20087;-63
2023/06/05 06:26:46;;;;;;;1.02;0.80;;;23.50;38.40;;;;;;5061230;28;20059;-60
2023/06/05 06:29:15;;;;;;;0.98;0.80;;;23.60;38.50;;;;;;5052993;28;20068;-61
2023/06/05 06:31:42;;;;;;;1.50;0.77;;;23.60;38.50;;;;;;5056486;28;20036;-62
2023/06/05 06:34:10;;;;;;;1.33;0.95;;;23.60;38.60;;;;;;5058299;28;20052;-63
2023/06/05 06:36:43;;;;;;;1.67;0.98;;;23.60;38.60;;;;;;5057015;28;20044;-62
2023/06/05 06:39:10;;;;;;;0.95;0.80;;;23.60;38.60;;;;;;5050822;28;20077;-59
2023/06/05 06:41:37;;;;;;;2.13;1.13;;;23.60;38.60;;;;;;5049884;28;20156;-59
2023/06/05 06:44:03;;;;;;;2.50;1.27;;;23.60;38.60;;;;;;5051278;28;20083;-61
2023/06/05 06:46:30;;;;;;;2.05;1.13;;;23.60;38.60;;;;;;5055897;28;20096;-65
2023/06/05 06:48:56;;;;;;;1.80;1.08;;;23.60;38.60;;;;;;5052725;28;20444;-60
2023/06/05 06:51:22;;;;;;;1.55;1.00;;;23.60;38.60;;;;;;5053056;28;20040;-60
2023/06/05 06:53:48;;;;;;;1.98;1.20;;;23.60;38.60;;;;;;5054682;28;20037;-64
2023/06/05 06:56:16;;;;;;;1.98;1.08;;;23.60;38.60;;;;;;5051037;28;20098;-61
2023/06/05 06:58:42;;;;;;;1.88;1.10;;;23.60;38.50;;;;;;5029705;28;20032;-61
2023/06/05 07:01:09;;;;;;;3.42;1.17;;;23.60;38.50;;;;;;5051526;28;20172;-59
2023/06/05 07:03:35;;;;;;;1.00;0.90;;;23.60;38.40;;;;;;5050619;28;20150;-58
2023/06/05 07:06:01;;;;;;;2.50;1.10;;;23.60;38.40;;;;;;5052819;28;20028;-60
2023/06/05 07:08:27;;;;;;;2.10;1.10;;;23.60;38.30;;;;;;5050420;28;20123;-60
2023/06/05 07:10:56;;;;;;;2.72;1.48;;;23.60;38.30;;;;;;5054536;28;20036;-60
2023/06/05 07:13:22;;;;;;;2.35;1.45;;;23.60;38.30;;;;;;5058378;28;20086;-63
2023/06/05 07:15:49;;;;;;;2.47;1.05;;;23.60;38.30;;;;;;5058774;28;20378;-61
2023/06/05 07:18:21;;;;;;;3.45;1.70;;;23.60;38.20;;;;;;5042148;28;20352;-60
2023/06/05 07:20:47;;;;;;;2.05;1.23;;;23.60;38.20;;;;;;5065923;28;20383;-62
2023/06/05 07:23:18;;;;;;;2.08;1.30;;;23.60;38.20;;;;;;5063579;28;20021;-64
2023/06/05 07:25:45;;;;;;;1.90;1.30;;;23.60;38.20;;;;;;5066457;28;20326;-61
2023/06/05 07:28:12;;;;;;;5.32;1.50;;;23.60;38.10;;;;;;5066294;28;20043;-61
2023/06/05 07:30:43;;;;;;;2.22;1.27;;;23.60;38.10;;;;;;5043723;28;20063;-58
2023/06/05 07:33:09;;;;;;;2.70;1.45;;;23.60;38.20;;;;;;5053002;28;20029;-62
2023/06/05 07:35:36;;;;;;;2.17;1.17;;;23.60;38.20;;;;;;5065437;28;20142;-59
2023/06/05 07:38:02;;;;;;;3.08;1.42;;;23.60;38.20;;;;;;5059639;28;20021;-61
2023/06/05 07:40:28;;;;;;;3.33;1.50;;;23.60;38.20;;;;;;5060672;28;20132;-60
2023/06/05 07:42:54;;;;;;;2.35;1.00;;;23.60;38.20;;;;;;5050190;28;20047;-60
2023/06/05 07:45:20;;;;;;;3.00;1.33;;;23.60;38.30;;;;;;5029761;28;20045;-59
2023/06/05 07:47:46;;;;;;;3.67;1.42;;;23.60;38.90;;;;;;5033355;28;20070;-59
2023/06/05 07:50:12;;;;;;;3.13;1.55;;;23.60;38.30;;;;;;5033804;28;20090;-61
2023/06/05 07:52:38;;;;;;;2.25;1.25;;;23.60;38.30;;;;;;5042768;28;20072;-60
2023/06/05 07:55:06;;;;;;;2.28;1.33;;;23.60;38.30;;;;;;5033950;28;20115;-58
2023/06/05 07:57:32;;;;;;;2.85;1.40;;;23.70;38.40;;;;;;5043565;28;20050;-59
2023/06/05 07:59:58;;;;;;;3.15;1.20;;;23.60;38.40;;;;;;5038812;28;20109;-59
2023/06/05 08:02:24;;;;;;;2.30;1.27;;;23.70;38.50;;;;;;5037716;28;20103;-57
2023/06/05 08:04:50;;;;;;;2.55;1.20;;;23.70;38.50;;;;;;5039181;28;20133;-60
2023/06/05 08:07:16;;;;;;;2.95;1.75;;;23.70;38.50;;;;;;5033155;28;20488;-62
2023/06/05 08:09:44;;;;;;;1.63;1.00;;;23.70;38.50;;;;;;5042075;28;20157;-60
2023/06/05 08:12:10;;;;;;;1.40;1.10;;;23.70;38.50;;;;;;5040099;28;20394;-61
2023/06/05 08:14:36;;;;;;;3.33;1.50;;;23.70;38.50;;;;;;5038223;28;20124;-57
2023/06/05 08:17:02;;;;;;;2.17;1.40;;;23.70;38.60;;;;;;5035986;28;20038;-61
2023/06/05 08:19:28;;;;;;;1.65;1.20;;;23.70;38.60;;;;;;5031333;28;20417;-60
2023/06/05 08:21:56;;;;;;;3.40;1.60;;;23.70;38.60;;;;;;5031620;28;20021;-59
2023/06/05 08:24:22;;;;;;;1.67;1.40;;;23.70;38.70;;;;;;5048750;28;20085;-61
2023/06/05 08:26:48;;;;;;;2.05;1.30;;;23.70;38.70;;;;;;5049950;28;20045;-60
2023/06/05 08:29:14;;;;;;;1.63;0.90;;;23.70;38.70;;;;;;5035071;28;20113;-60
2023/06/05 08:31:40;;;;;;;2.08;1.13;;;23.70;38.70;;;;;;5031161;28;20085;-60
2023/06/05 08:34:06;;;;;;;2.22;1.48;;;23.70;38.70;;;;;;5031255;28;20026;-59
2023/06/05 08:36:32;;;;;;;2.65;1.23;;;23.70;38.70;;;;;;5044922;28;20037;-62
2023/06/05 08:39:02;;;;;;;1.75;1.10;;;23.70;38.70;;;;;;5041481;28;20025;-57
2023/06/05 08:41:30;;;;;;;3.42;1.20;;;23.70;38.70;;;;;;5050549;28;20321;-59
2023/06/05 08:43:56;;;;;;;1.67;1.00;;;23.70;38.70;;;;;;5048299;28;20033;-60
2023/06/05 08:46:27;;;;;;;2.35;1.20;;;23.80;38.70;;;;;;5064203;28;20040;-60
2023/06/05 08:48:55;;;;;;;2.00;0.98;;;23.80;38.70;;;;;;5061185;28;20029;-60
2023/06/05 08:51:21;;;;;;;2.03;1.15;;;23.80;38.70;;;;;;5050441;28;20104;-58
2023/06/05 08:53:53;;;;;;;1.92;1.20;;;23.70;39.30;;;;;;5064399;28;20040;-61
2023/06/05 08:56:19;;;;;;;2.20;1.23;;;23.80;38.80;;;;;;5070799;28;20044;-60
2023/06/05 08:58:48;;;;;;;1.40;1.13;;;23.80;38.80;;;;;;5063162;28;20435;-60
2023/06/05 09:01:16;;;;;;;3.17;1.25;;;23.80;38.80;;;;;;5057183;28;20335;-56
2023/06/05 09:03:42;;;;;;;2.28;1.23;;;23.80;38.80;;;;;;5056164;28;20107;-61
2023/06/05 09:06:10;;;;;;;1.75;0.90;;;23.80;38.80;;;;;;5070002;28;20037;-58
2023/06/05 09:08:36;;;;;;;1.15;1.02;;;23.80;38.80;;;;;;5055883;28;20033;-57
2023/06/05 09:11:22;;;;;;;1.58;1.00;;;23.80;38.80;;;;;;5050225;28;20032;-58
2023/06/05 09:13:49;;;;;;;1.35;0.95;;;23.80;38.80;;;;;;5055624;28;20038;-60
2023/06/05 09:16:15;;;;;;;1.80;0.90;;;23.80;38.80;;;;;;5049514;28;20446;-61
2023/06/05 09:18:56;;;;;;;1.65;1.05;;;23.80;38.90;;;;;;5056015;28;20048;-57
2023/06/05 09:21:28;;;;;;;1.88;1.10;;;23.80;38.90;;;;;;5070690;28;20182;-60
2023/06/05 09:24:11;;;;;;;1.20;0.90;;;23.80;38.90;;;;;;5065658;28;20278;-58
2023/06/05 09:26:55;;;;;;;1.55;0.95;;;23.80;38.90;;;;;;5070464;28;20154;-62
2023/06/05 09:29:23;;;;;;;1.88;1.10;;;23.90;39.00;;;;;;5064112;28;20033;-59
2023/06/05 09:31:50;;;;;;;1.52;0.88;;;23.80;39.00;;;;;;5066951;28;20029;-62
2023/06/05 09:34:28;;;;;;;2.85;1.30;;;23.80;39.00;;;;;;5038363;28;20032;-59
2023/06/05 09:37:13;;;;;;;2.25;1.08;;;23.90;39.10;;;;;;5070309;28;20036;-60
2023/06/05 09:39:43;;;;;;;1.58;0.93;;;23.90;39.10;;;;;;5056549;28;20021;-61
2023/06/05 09:42:08;;;;;;;1.50;1.17;;;23.90;39.20;;;;;;5050546;28;20300;-56
2023/06/05 09:44:35;;;;;;;3.03;1.20;;;23.90;39.20;;;;;;5050358;28;20040;-57
2023/06/05 09:47:08;;;;;;;1.23;1.00;;;23.90;39.20;;;;;;5049992;28;20142;-61
2023/06/05 09:49:39;;;;;;;1.88;1.10;;;23.90;39.20;;;;;;5057876;28;20102;-62
2023/06/05 09:52:08;;;;;;;2.00;1.00;;;23.90;39.20;;;;;;5049959;28;20459;-58
2023/06/05 09:54:36;;;;;;;1.52;1.00;;;24.00;39.30;;;;;;5056924;28;20096;-59
2023/06/05 09:57:04;;;;;;;2.42;1.27;;;24.00;39.30;;;;;;5054104;28;20037;-62
2023/06/05 09:59:34;;;;;;;1.50;0.90;;;24.00;39.30;;;;;;5058280;28;20389;-59
2023/06/05 10:02:04;;;;;;;2.60;1.27;;;23.90;39.20;;;;;;5057193;28;20029;-60
2023/06/05 10:04:52;;;;;;;1.60;1.00;;;24.00;39.30;;;;;;5062427;28;20039;-61
2023/06/05 10:07:19;;;;;;;1.55;1.02;;;24.00;39.30;;;;;;5056412;28;20059;-62
2023/06/05 10:09:49;;;;;;;3.30;1.30;;;24.00;39.40;;;;;;5063515;28;20108;-60
2023/06/05 10:12:16;;;;;;;2.08;1.10;;;24.00;39.40;;;;;;5050744;28;20387;-59
2023/06/05 10:14:43;;;;;;;2.45;1.27;;;24.00;39.50;;;;;;5050840;28;20036;-61
2023/06/05 10:17:13;;;;;;;3.60;0.90;;;24.00;39.50;;;;;;5055003;28;20168;-61
2023/06/05 10:19:43;;;;;;;1.80;1.15;;;24.00;39.50;;;;;;5061638;28;20067;-58
2023/06/05 10:22:13;;;;;;;2.28;1.23;;;24.00;39.50;;;;;;5061067;28;20056;-59
2023/06/05 10:24:44;;;;;;;1.90;1.10;;;24.00;39.50;;;;;;5061261;28;20052;-61
2023/06/05 10:27:11;;;;;;;1.95;1.20;;;24.00;39.60;;;;;;5044213;28;20470;-61
2023/06/05 10:29:40;;;;;;;2.03;1.10;;;24.00;39.60;;;;;;5059980;28;20048;-61
2023/06/05 10:32:29;;;;;;;1.83;1.20;;;24.10;39.70;;;;;;5061008;28;20073;-60
2023/06/05 10:35:10;;;;;;;2.13;1.20;;;24.00;39.80;;;;;;5056276;28;20048;-60
2023/06/05 10:37:45;;;;;;;2.65;1.30;;;24.10;39.90;;;;;;5053380;28;20112;-60
2023/06/05 10:40:11;;;;;;;2.17;1.45;;;24.10;39.90;;;;;;5045167;28;20333;-61
2023/06/05 10:42:37;;;;;;;2.53;1.50;;;24.10;39.90;;;;;;5073168;28;20056;-60
2023/06/05 10:45:05;;;;;;;1.27;1.10;;;24.10;39.90;;;;;;5063475;28;20041;-62
2023/06/05 10:47:34;;;;;;;2.25;1.13;;;24.10;39.90;;;;;;5073070;28;20055;-60
2023/06/05 10:50:21;;;;;;;3.60;1.20;;;24.10;39.90;;;;;;5065785;28;20021;-61
2023/06/05 10:52:50;;;;;;;1.88;1.30;;;24.10;39.90;;;;;;5072824;28;20032;-59
2023/06/05 10:55:18;;;;;;;3.08;1.10;;;24.10;39.80;;;;;;5060195;28;20028;-60
2023/06/05 10:58:09;;;;;;;3.47;1.10;;;24.10;39.80;;;;;;5060565;28;20043;-58
2023/06/05 11:00:37;;;;;;;1.77;1.20;;;24.20;39.80;;;;;;5055151;28;20033;-59
2023/06/05 11:03:03;;;;;;;1.55;0.93;;;24.10;39.70;;;;;;5065366;28;20052;-65
2023/06/05 11:05:29;;;;;;;2.00;1.10;;;24.20;39.80;;;;;;5058661;28;20029;-62
2023/06/05 11:08:15;;;;;;;2.97;1.25;;;24.20;39.90;;;;;;5055302;28;20040;-64
2023/06/05 11:11:09;;;;;;;1.40;1.10;;;24.20;39.90;;;;;;5056820;28;20048;-65
2023/06/05 11:13:58;;;;;;;2.10;1.33;;;24.20;40.00;;;;;;5034324;28;20094;-61
2023/06/05 11:16:32;;;;;;;2.90;1.10;;;24.30;40.00;;;;;;5048140;28;20126;-63
2023/06/05 11:19:36;;;;;;;1.25;0.90;;;24.40;40.00;;;;;;5062169;28;20049;-62
2023/06/05 11:22:10;;;;;;;2.08;1.02;;;24.60;39.90;;;;;;5024162;28;20044;-63
2023/06/05 11:24:38;;;;;;;1.58;1.00;;;24.70;39.80;;;;;;5061266;28;20028;-61
2023/06/05 11:27:05;;;;;;;1.73;1.05;;;24.70;39.70;;;;;;5056594;28;20289;-63
2023/06/05 11:29:32;;;;;;;2.10;1.05;;;24.90;39.60;;;;;;5062159;28;20097;-62
2023/06/05 11:31:58;;;;;;;1.50;1.00;;;25.00;39.50;;;;;;5058280;28;20072;-64
2023/06/05 11:34:25;;;;;;;2.22;1.13;;;25.00;39.30;;;;;;5063263;28;20028;-61
2023/06/05 11:36:51;;;;;;;2.17;0.95;;;25.20;39.20;;;;;;5056154;28;20037;-62
2023/06/05 11:39:19;;;;;;;1.60;0.88;;;25.30;39.00;;;;;;5050950;28;20028;-63
2023/06/05 11:41:46;;;;;;;1.10;0.90;;;25.30;38.80;;;;;;5057008;28;20028;-61
2023/06/05 11:44:13;;;;;;;1.65;1.08;;;25.50;38.70;;;;;;5061229;28;20086;-63
2023/06/05 11:46:43;;;;;;;1.85;1.00;;;25.50;38.50;;;;;;5054000;28;20689;-65
2023/06/05 11:49:29;;;;;;;1.35;0.90;;;25.60;38.40;;;;;;5059875;28;20021;-61
2023/06/05 11:51:55;;;;;;;1.30;0.90;;;25.70;38.30;;;;;;5035868;28;20024;-58
2023/06/05 11:54:31;;;;;;;0.95;0.85;;;25.80;38.20;;;;;;5056461;28;20099;-61
2023/06/05 11:56:59;;;;;;;0.70;0.68;;;25.80;38.00;;;;;;5057062;28;20080;-62
2023/06/05 11:59:25;;;;;;;0.93;0.82;;;25.90;37.90;;;;;;5055704;28;20146;-61
2023/06/05 12:01:54;;;;;;;1.25;0.75;;;25.90;37.80;;;;;;5056868;28;20041;-57
2023/06/05 12:04:21;;;;;;;1.27;0.80;;;25.90;37.60;;;;;;5060174;28;20028;-58
2023/06/05 12:06:47;;;;;;;1.63;1.10;;;25.90;37.50;;;;;;5060904;28;20435;-60
2023/06/05 12:09:15;;;;;;;1.52;1.10;;;25.90;37.40;;;;;;5055996;28;20033;-61
2023/06/05 12:11:44;;;;;;;2.08;1.20;;;25.90;37.40;;;;;;5052864;28;20032;-59
2023/06/05 12:14:29;;;;;;;1.17;0.88;;;25.80;37.30;;;;;;5051941;28;20053;-60
2023/06/05 12:16:55;;;;;;;1.40;1.05;;;25.80;37.30;;;;;;5050053;28;20037;-62
2023/06/05 12:19:21;;;;;;;1.50;1.10;;;25.80;37.40;;;;;;5064359;28;20114;-61
2023/06/05 12:21:50;;;;;;;1.05;0.88;;;25.80;37.30;;;;;;5047710;28;20112;-59
2023/06/05 12:24:26;;;;;;;2.67;0.95;;;25.70;37.20;;;;;;5049837;28;20080;-61
2023/06/05 12:26:55;;;;;;;1.27;0.75;;;25.70;37.20;;;;;;5051161;28;20025;-59
2023/06/05 12:29:23;;;;;;;1.98;0.90;;;25.70;37.40;;;;;;5050273;28;20102;-60
2023/06/05 12:31:50;;;;;;;2.17;1.30;;;25.60;37.30;;;;;;5032451;28;20028;-60
2023/06/05 12:34:16;;;;;;;1.58;1.00;;;25.60;37.40;;;;;;5052107;28;20085;-61
2023/06/05 12:36:43;;;;;;;2.05;1.05;;;25.60;37.50;;;;;;5049998;28;20413;-61
2023/06/05 12:39:13;;;;;;;1.77;1.10;;;25.60;37.50;;;;;;5047824;28;20102;-64
2023/06/05 12:41:40;;;;;;;1.50;1.10;;;25.60;37.90;;;;;;5050036;28;20036;-62
2023/06/05 12:44:07;;;;;;;1.73;0.90;;;25.50;37.60;;;;;;5047895;28;20132;-61
2023/06/05 12:46:35;;;;;;;1.95;1.00;;;25.50;37.60;;;;;;5050554;28;20049;-64
2023/06/05 12:49:05;;;;;;;1.05;0.90;;;25.50;37.60;;;;;;5047121;28;20461;-60
2023/06/05 12:51:31;;;;;;;1.55;1.20;;;25.50;37.60;;;;;;5033961;28;20039;-62
2023/06/05 12:53:57;;;;;;;1.65;1.10;;;25.50;37.60;;;;;;5048865;28;20077;-64
2023/06/05 12:56:28;;;;;;;1.35;1.10;;;25.50;37.60;;;;;;5047633;28;20033;-61